Time;durP1;ratioP1;P1;durP2;ratioP2;P2;SDS_P1;SDS_P2;PMS_P1;PMS_P2;Temp;Humidity;BMP_temperature;BMP_pressure;BME280_temperature;BME280_humidity;BME280_pressure;Samples;Min_cycle;Max_cycle;Signal;HPM_P1;HPM_P2
2022/12/15 05:33:26;;;;;;;57.50;43.30;;;0.00;99.90;;;;;;6247807;23;20846;-68
2022/12/15 05:35:55;;;;;;;59.10;44.57;;;0.00;99.90;;;;;;6247026;23;20468;-67
2022/12/15 05:38:22;;;;;;;59.07;43.70;;;0.00;99.90;;;;;;6247345;23;20461;-68
2022/12/15 05:40:48;;;;;;;60.03;43.53;;;0.00;99.90;;;;;;6247173;22;20438;-68
2022/12/15 05:43:16;;;;;;;59.00;44.07;;;-0.10;99.90;;;;;;6247129;23;20414;-68
2022/12/15 05:45:43;;;;;;;59.03;44.03;;;-0.10;99.90;;;;;;6246837;23;20477;-67
2022/12/15 05:48:09;;;;;;;57.70;42.00;;;0.00;99.90;;;;;;6247417;23;20411;-68
2022/12/15 05:50:37;;;;;;;61.23;43.23;;;-0.10;99.90;;;;;;6246988;22;20557;-67
2022/12/15 05:53:04;;;;;;;55.00;40.87;;;0.00;99.90;;;;;;6247013;23;20899;-68
2022/12/15 05:55:31;;;;;;;58.23;41.67;;;0.00;99.90;;;;;;6247628;23;20410;-68
2022/12/15 05:57:57;;;;;;;58.93;43.70;;;-0.10;99.90;;;;;;6247193;23;20417;-68
2022/12/15 06:00:24;;;;;;;61.60;43.30;;;0.00;99.90;;;;;;6246540;22;20431;-66
2022/12/15 06:02:51;;;;;;;60.00;44.93;;;-0.10;99.90;;;;;;6246836;23;20713;-69
2022/12/15 06:05:18;;;;;;;59.83;43.17;;;-0.10;99.90;;;;;;6246802;23;20411;-68
2022/12/15 06:07:46;;;;;;;59.23;44.40;;;0.00;99.90;;;;;;6248066;23;20415;-68
2022/12/15 06:10:13;;;;;;;62.03;43.50;;;0.00;99.90;;;;;;6249251;22;20407;-68
2022/12/15 06:12:39;;;;;;;57.00;43.00;;;0.00;99.90;;;;;;6247820;23;20414;-68
2022/12/15 06:15:06;;;;;;;55.90;41.93;;;0.00;99.90;;;;;;6246971;23;20468;-68
2022/12/15 06:17:33;;;;;;;57.77;41.67;;;0.00;99.90;;;;;;6247303;23;20460;-68
2022/12/15 06:20:00;;;;;;;54.20;40.13;;;0.00;99.90;;;;;;6247400;23;20434;-67
2022/12/15 06:22:28;;;;;;;54.93;41.07;;;0.00;99.90;;;;;;6246128;22;20484;-66
2022/12/15 06:24:56;;;;;;;52.20;40.23;;;0.00;99.90;;;;;;6246220;23;20465;-63
2022/12/15 06:27:23;;;;;;;54.70;41.83;;;0.10;99.90;;;;;;6246441;23;20923;-63
2022/12/15 06:29:50;;;;;;;58.27;42.80;;;0.00;99.90;;;;;;6246283;23;20411;-63
2022/12/15 06:32:16;;;;;;;52.40;39.83;;;0.00;99.90;;;;;;6246230;22;20438;-63
2022/12/15 06:34:43;;;;;;;59.53;43.70;;;0.00;99.90;;;;;;6246240;23;20418;-63
2022/12/15 06:37:10;;;;;;;54.23;41.20;;;0.10;99.90;;;;;;6246890;23;20734;-63
2022/12/15 06:39:36;;;;;;;61.30;42.13;;;0.00;99.90;;;;;;6247565;23;20410;-63
2022/12/15 06:42:04;;;;;;;56.00;42.97;;;0.00;99.90;;;;;;6247947;22;20472;-63
2022/12/15 06:44:31;;;;;;;59.60;43.13;;;0.00;99.90;;;;;;6248110;23;20464;-63
2022/12/15 06:46:58;;;;;;;57.00;42.10;;;0.10;99.90;;;;;;6248359;23;20415;-63
2022/12/15 06:49:24;;;;;;;58.30;42.03;;;0.00;99.90;;;;;;6247630;23;20962;-63
2022/12/15 06:51:51;;;;;;;59.93;44.57;;;0.00;99.90;;;;;;6247812;22;20461;-64
2022/12/15 06:54:18;;;;;;;61.00;42.47;;;0.00;99.90;;;;;;6248214;23;20418;-63
2022/12/15 06:56:44;;;;;;;58.83;41.10;;;0.00;99.90;;;;;;6247649;23;20899;-64
2022/12/15 06:59:13;;;;;;;60.63;43.67;;;0.10;99.90;;;;;;6247842;23;20445;-63
2022/12/15 07:01:41;;;;;;;56.90;41.30;;;0.20;99.90;;;;;;6247449;22;20445;-63
2022/12/15 07:04:09;;;;;;;58.53;43.03;;;0.20;99.90;;;;;;6247980;23;20790;-63
2022/12/15 07:06:37;;;;;;;63.60;44.20;;;0.20;99.90;;;;;;6247834;23;20411;-63
2022/12/15 07:09:09;;;;;;;60.80;43.07;;;0.20;99.90;;;;;;6247930;23;20541;-63
2022/12/15 07:11:36;;;;;;;58.80;42.17;;;0.20;99.90;;;;;;6247811;22;20434;-63
2022/12/15 07:14:03;;;;;;;56.00;41.10;;;0.30;99.90;;;;;;6247925;23;20418;-63
2022/12/15 07:16:31;;;;;;;61.70;42.20;;;0.20;99.90;;;;;;6247515;23;20915;-63
2022/12/15 07:18:58;;;;;;;58.10;42.00;;;0.20;99.90;;;;;;6247828;23;20406;-62
2022/12/15 07:21:25;;;;;;;57.63;40.63;;;0.20;99.90;;;;;;6247490;22;20767;-63
2022/12/15 07:23:51;;;;;;;59.30;42.10;;;0.10;99.90;;;;;;6247722;23;20419;-63
2022/12/15 07:26:18;;;;;;;56.17;41.53;;;0.10;99.90;;;;;;6248470;23;20410;-63
2022/12/15 07:28:45;;;;;;;57.93;41.50;;;0.00;99.90;;;;;;6247890;23;20469;-63
2022/12/15 07:31:11;;;;;;;58.67;41.90;;;0.00;99.90;;;;;;6247783;22;20430;-63
2022/12/15 07:33:39;;;;;;;55.53;41.40;;;0.00;99.90;;;;;;6247860;23;20411;-63
2022/12/15 07:36:08;;;;;;;58.67;42.10;;;0.10;99.90;;;;;;6247880;23;20502;-66
2022/12/15 07:38:35;;;;;;;55.70;42.73;;;0.10;99.90;;;;;;6248099;23;20411;-66
2022/12/15 07:41:03;;;;;;;57.33;41.53;;;0.10;99.90;;;;;;6247747;22;20439;-66
2022/12/15 07:43:31;;;;;;;58.10;41.30;;;0.20;99.90;;;;;;6247517;23;20415;-66
2022/12/15 07:45:57;;;;;;;58.40;40.27;;;0.20;99.90;;;;;;6247574;23;20460;-65
2022/12/15 07:48:24;;;;;;;57.47;42.07;;;0.20;99.90;;;;;;6247085;23;20445;-66
2022/12/15 07:50:56;;;;;;;54.43;40.87;;;0.20;99.90;;;;;;6247367;22;20502;-65
2022/12/15 07:53:23;;;;;;;54.30;41.50;;;0.30;99.90;;;;;;6247129;23;20706;-65
2022/12/15 07:55:54;;;;;;;52.40;39.30;;;0.30;99.90;;;;;;6247501;23;20446;-65
2022/12/15 07:58:21;;;;;;;54.07;40.07;;;0.30;99.90;;;;;;6247341;23;20697;-66
2022/12/15 08:00:48;;;;;;;48.17;36.10;;;0.40;99.90;;;;;;6246310;22;20525;-65
2022/12/15 08:03:14;;;;;;;51.50;38.37;;;0.40;99.90;;;;;;6245644;23;20421;-65
2022/12/15 08:05:41;;;;;;;49.27;36.70;;;0.50;99.90;;;;;;6246123;23;20464;-65
2022/12/15 08:08:10;;;;;;;50.17;38.50;;;0.50;99.90;;;;;;6246024;23;20411;-66
2022/12/15 08:10:38;;;;;;;50.20;37.07;;;0.50;99.90;;;;;;6246223;22;20434;-65
2022/12/15 08:13:05;;;;;;;48.77;35.60;;;0.50;99.90;;;;;;6245940;23;20415;-65
2022/12/15 08:15:34;;;;;;;51.60;36.87;;;0.50;99.90;;;;;;6246049;23;20465;-66
2022/12/15 08:18:00;;;;;;;48.80;35.97;;;0.50;99.90;;;;;;6245482;23;20903;-65
2022/12/15 08:20:29;;;;;;;52.27;37.70;;;0.50;99.90;;;;;;6245309;22;20415;-65
2022/12/15 08:22:55;;;;;;;47.90;35.27;;;0.60;99.90;;;;;;6245871;23;20415;-65
2022/12/15 08:25:24;;;;;;;46.17;34.60;;;0.60;99.90;;;;;;6245873;23;20411;-65
2022/12/15 08:27:51;;;;;;;50.73;36.33;;;0.60;99.90;;;;;;6246005;23;20441;-65
2022/12/15 08:30:18;;;;;;;48.57;35.17;;;0.60;99.90;;;;;;6245686;22;20494;-65
2022/12/15 08:32:45;;;;;;;46.87;35.77;;;0.70;99.90;;;;;;6245893;23;20445;-65
2022/12/15 08:35:12;;;;;;;42.30;33.67;;;0.70;99.90;;;;;;6245796;23;20411;-65
2022/12/15 08:37:39;;;;;;;49.17;35.87;;;0.70;99.90;;;;;;6245754;23;20490;-65
2022/12/15 08:40:07;;;;;;;46.10;35.50;;;0.70;99.90;;;;;;6245656;23;20494;-65
2022/12/15 08:42:35;;;;;;;47.63;35.87;;;0.70;99.90;;;;;;6245460;22;20446;-65
2022/12/15 08:45:02;;;;;;;44.07;33.90;;;0.80;99.90;;;;;;6245589;23;20471;-66
2022/12/15 08:47:29;;;;;;;49.73;35.70;;;0.90;99.90;;;;;;6245312;23;20963;-65
2022/12/15 08:49:56;;;;;;;46.27;35.67;;;0.90;99.90;;;;;;6245089;23;20443;-65
2022/12/15 08:52:23;;;;;;;50.53;35.23;;;0.90;99.90;;;;;;6245022;22;20427;-65
2022/12/15 08:54:50;;;;;;;47.10;36.70;;;0.90;99.90;;;;;;6245646;23;20469;-65
2022/12/15 08:57:17;;;;;;;50.00;35.50;;;1.00;99.90;;;;;;6245463;23;20411;-66
2022/12/15 08:59:45;;;;;;;47.87;35.87;;;1.00;99.90;;;;;;6244996;23;20465;-65
2022/12/15 09:02:12;;;;;;;51.23;34.83;;;1.10;99.90;;;;;;6201738;22;1021420;-65
2022/12/15 09:04:39;;;;;;;45.70;35.77;;;1.10;99.90;;;;;;6246423;23;20172;-65
2022/12/15 09:07:06;;;;;;;45.87;32.60;;;1.20;99.90;;;;;;6246869;23;20443;-66
2022/12/15 09:09:33;;;;;;;49.80;37.00;;;1.20;99.90;;;;;;6246714;23;20421;-65
2022/12/15 09:12:00;;;;;;;49.20;36.60;;;1.20;99.90;;;;;;6246830;22;20427;-65
2022/12/15 09:14:27;;;;;;;48.87;34.50;;;1.30;99.90;;;;;;6246952;23;20414;-65
2022/12/15 09:16:55;;;;;;;50.50;35.60;;;1.30;99.90;;;;;;6247019;23;20410;-66
2022/12/15 09:19:21;;;;;;;45.70;32.87;;;1.30;99.90;;;;;;6246717;23;20411;-66
2022/12/15 09:21:48;;;;;;;45.30;33.70;;;1.30;99.90;;;;;;6246464;22;20435;-65
2022/12/15 09:24:15;;;;;;;44.53;33.70;;;1.30;99.90;;;;;;6247453;23;20752;-65
2022/12/15 09:26:43;;;;;;;44.83;32.70;;;1.30;99.90;;;;;;6246916;23;20411;-66
2022/12/15 09:29:11;;;;;;;45.73;34.40;;;1.40;99.90;;;;;;6246334;23;20856;-65
2022/12/15 09:31:39;;;;;;;45.03;32.50;;;1.50;99.90;;;;;;6246778;22;20464;-65
2022/12/15 09:34:07;;;;;;;44.43;32.83;;;1.60;99.90;;;;;;6251189;23;20486;-65
2022/12/15 09:36:34;;;;;;;41.00;32.17;;;1.60;99.90;;;;;;6252806;23;20411;-67
2022/12/15 09:39:02;;;;;;;42.00;32.77;;;1.70;99.90;;;;;;6255931;23;20411;-66
2022/12/15 09:41:31;;;;;;;42.47;33.13;;;1.70;99.90;;;;;;6248412;22;20439;-66
2022/12/15 09:44:01;;;;;;;41.20;33.33;;;1.80;99.90;;;;;;6247455;23;20411;-66
2022/12/15 09:46:41;;;;;;;42.10;31.10;;;1.80;99.90;;;;;;6247223;23;20395;-66
2022/12/15 09:49:17;;;;;;;42.20;32.53;;;1.90;99.90;;;;;;6247990;23;20395;-66
2022/12/15 09:51:49;;;;;;;45.07;33.40;;;2.00;99.90;;;;;;6247180;22;20430;-66
2022/12/15 09:54:16;;;;;;;46.73;36.00;;;2.00;99.90;;;;;;6247561;23;20426;-66
2022/12/15 09:56:49;;;;;;;44.17;32.83;;;2.00;99.90;;;;;;6246690;23;20411;-66
2022/12/15 09:59:26;;;;;;;44.73;34.03;;;2.00;99.90;;;;;;6246550;23;20399;-66
2022/12/15 10:02:01;;;;;;;44.17;32.43;;;2.00;99.90;;;;;;6245933;22;20438;-66
2022/12/15 10:04:41;;;;;;;44.37;34.20;;;2.00;99.90;;;;;;6246617;23;20397;-66
2022/12/15 10:07:14;;;;;;;38.40;30.90;;;2.00;99.90;;;;;;6246765;23;20456;-66
2022/12/15 10:09:41;;;;;;;42.07;32.77;;;2.00;99.90;;;;;;6246395;23;20865;-66
2022/12/15 10:12:14;;;;;;;44.97;32.30;;;2.00;99.90;;;;;;6247326;22;20798;-66
2022/12/15 10:14:44;;;;;;;38.20;32.00;;;2.00;99.90;;;;;;6249803;23;20399;-67
2022/12/15 10:17:21;;;;;;;44.40;33.60;;;2.00;99.90;;;;;;6250631;23;20411;-67
2022/12/15 10:19:55;;;;;;;40.90;32.23;;;2.00;99.90;;;;;;6250359;23;20473;-66
2022/12/15 10:22:24;;;;;;;42.17;32.37;;;2.10;99.90;;;;;;6250536;22;20443;-66
2022/12/15 10:24:51;;;;;;;44.00;33.60;;;2.10;99.90;;;;;;6249518;23;20411;-66
2022/12/15 10:27:33;;;;;;;43.47;33.10;;;2.10;99.90;;;;;;6248551;23;20410;-66
2022/12/15 10:30:02;;;;;;;43.93;32.90;;;2.10;99.90;;;;;;6248559;23;20430;-66
2022/12/15 10:32:41;;;;;;;40.63;31.37;;;1.90;99.90;;;;;;6248401;22;20426;-66
2022/12/15 10:35:14;;;;;;;46.60;33.93;;;1.80;99.90;;;;;;6248171;23;20864;-68
2022/12/15 10:37:42;;;;;;;38.23;31.10;;;1.90;99.90;;;;;;6248446;23;20395;-67
2022/12/15 10:40:14;;;;;;;40.60;32.30;;;1.90;99.90;;;;;;6248258;23;20444;-67
2022/12/15 10:42:47;;;;;;;46.00;32.53;;;1.90;99.90;;;;;;6247783;23;20793;-66
2022/12/15 10:45:32;;;;;;;41.20;32.17;;;2.10;99.90;;;;;;6248532;23;20402;-66
2022/12/15 10:48:01;;;;;;;40.47;33.03;;;2.10;99.90;;;;;;6248592;23;20395;-66
2022/12/15 10:50:29;;;;;;;40.27;32.53;;;2.30;99.90;;;;;;6248225;22;20411;-66
2022/12/15 10:52:56;;;;;;;38.23;33.10;;;2.40;99.90;;;;;;6248430;23;20407;-66
2022/12/15 10:55:35;;;;;;;40.10;31.20;;;2.50;99.90;;;;;;6249273;23;20461;-66
2022/12/15 10:58:04;;;;;;;39.27;32.30;;;2.60;99.90;;;;;;6248418;23;20395;-66
2022/12/15 11:00:32;;;;;;;40.23;31.60;;;2.50;99.90;;;;;;6247969;22;20786;-66
2022/12/15 11:02:59;;;;;;;41.00;33.33;;;2.40;99.90;;;;;;6247951;23;20453;-67
2022/12/15 11:05:26;;;;;;;42.60;32.20;;;2.40;99.90;;;;;;6248278;23;20415;-66
2022/12/15 11:07:56;;;;;;;41.00;31.13;;;2.40;99.90;;;;;;6247965;23;20494;-66
2022/12/15 11:10:25;;;;;;;40.33;32.60;;;2.50;99.90;;;;;;6248694;22;20465;-66
2022/12/15 11:13:01;;;;;;;38.00;32.17;;;2.50;99.90;;;;;;6247942;23;20407;-66
2022/12/15 11:15:40;;;;;;;38.07;31.80;;;2.50;99.90;;;;;;6248137;23;20452;-66
2022/12/15 11:18:15;;;;;;;42.00;33.13;;;2.50;99.90;;;;;;6247859;23;20399;-66
2022/12/15 11:20:45;;;;;;;37.30;31.60;;;2.50;99.90;;;;;;6247699;22;20481;-66
2022/12/15 11:23:19;;;;;;;39.10;33.70;;;2.50;99.90;;;;;;6247074;23;20458;-66
2022/12/15 11:25:51;;;;;;;38.33;31.17;;;2.40;99.90;;;;;;6247967;23;20771;-66
2022/12/15 11:28:22;;;;;;;40.80;33.20;;;2.40;99.90;;;;;;6247567;23;20403;-66
2022/12/15 11:30:56;;;;;;;39.83;32.47;;;2.40;99.90;;;;;;6247858;22;20439;-66
2022/12/15 11:33:23;;;;;;;40.10;32.40;;;2.30;99.90;;;;;;6247876;23;20394;-66
2022/12/15 11:36:06;;;;;;;39.30;33.10;;;2.20;99.90;;;;;;6247787;23;20498;-66
2022/12/15 11:38:42;;;;;;;40.13;31.43;;;2.20;99.90;;;;;;6247780;23;20453;-66
2022/12/15 11:41:21;;;;;;;39.43;31.63;;;2.20;99.90;;;;;;6247464;22;20438;-65
2022/12/15 11:44:12;;;;;;;35.20;28.83;;;2.20;99.90;;;;;;6247189;23;20796;-66
2022/12/15 11:46:43;;;;;;;38.23;30.90;;;2.30;99.90;;;;;;6247706;23;20401;-66
2022/12/15 11:49:36;;;;;;;36.50;30.07;;;2.30;99.90;;;;;;6247599;23;20445;-66
2022/12/15 11:52:11;;;;;;;37.43;31.43;;;2.40;99.90;;;;;;6247984;22;20757;-65
2022/12/15 11:54:46;;;;;;;40.87;32.30;;;2.30;99.90;;;;;;6247656;23;20395;-66
2022/12/15 11:57:33;;;;;;;37.07;29.83;;;2.30;99.90;;;;;;6247343;23;20756;-66
2022/12/15 12:00:05;;;;;;;39.07;31.43;;;2.40;99.90;;;;;;6247467;23;20391;-66
2022/12/15 12:02:51;;;;;;;34.70;29.87;;;2.30;99.90;;;;;;6246789;22;20947;-65
2022/12/15 12:05:31;;;;;;;37.23;31.50;;;2.30;99.90;;;;;;6247402;23;20395;-66
2022/12/15 12:08:13;;;;;;;39.37;30.83;;;2.20;99.90;;;;;;6247793;23;20398;-66
2022/12/15 12:10:52;;;;;;;37.23;30.40;;;2.30;99.90;;;;;;6247721;22;20430;-66
2022/12/15 12:13:27;;;;;;;37.90;31.07;;;2.40;99.90;;;;;;6247446;23;20418;-67
2022/12/15 12:16:03;;;;;;;38.57;30.43;;;2.40;99.90;;;;;;6247383;23;20395;-67
2022/12/15 12:18:34;;;;;;;36.90;30.30;;;2.40;99.90;;;;;;6247443;23;20461;-67
2022/12/15 12:21:06;;;;;;;36.20;29.70;;;2.40;99.90;;;;;;6246701;22;20431;-66
2022/12/15 12:23:39;;;;;;;40.53;31.53;;;2.40;99.90;;;;;;6247295;23;20434;-66
2022/12/15 12:26:12;;;;;;;35.57;30.10;;;2.30;99.90;;;;;;6247775;23;20422;-66
2022/12/15 12:28:45;;;;;;;37.87;30.70;;;2.30;99.90;;;;;;6247250;23;20851;-67
2022/12/15 12:31:21;;;;;;;39.83;30.30;;;2.40;99.90;;;;;;6247558;22;20435;-66
2022/12/15 12:33:51;;;;;;;36.43;30.40;;;2.50;99.90;;;;;;6247118;23;20429;-67
2022/12/15 12:36:17;;;;;;;37.47;30.10;;;2.50;99.90;;;;;;6247067;23;20587;-67
2022/12/15 12:38:47;;;;;;;33.20;29.60;;;2.40;99.90;;;;;;6247260;23;20447;-67
2022/12/15 12:41:26;;;;;;;35.17;30.00;;;2.50;99.90;;;;;;6247934;22;20441;-67
2022/12/15 12:43:56;;;;;;;40.47;31.70;;;2.50;99.90;;;;;;6256995;23;20483;-67
2022/12/15 12:46:27;;;;;;;40.47;31.50;;;2.60;99.90;;;;;;6259424;23;20407;-66
2022/12/15 12:48:58;;;;;;;38.70;30.30;;;2.60;99.90;;;;;;6251053;23;20498;-66
2022/12/15 12:51:29;;;;;;;37.27;29.27;;;2.70;99.90;;;;;;6247255;22;20431;-66
2022/12/15 12:53:57;;;;;;;34.60;29.07;;;2.70;99.90;;;;;;6247358;23;20481;-66
2022/12/15 12:56:35;;;;;;;36.20;30.20;;;2.80;99.90;;;;;;6247213;23;20418;-66
2022/12/15 12:59:07;;;;;;;36.83;30.30;;;2.90;99.90;;;;;;6247157;23;20474;-66
2022/12/15 13:01:36;;;;;;;33.93;28.57;;;2.90;99.90;;;;;;6246730;22;20439;-64
2022/12/15 13:04:11;;;;;;;35.53;30.20;;;3.10;99.90;;;;;;6247070;23;20439;-63
2022/12/15 13:07:01;;;;;;;35.90;29.73;;;3.20;99.90;;;;;;6246846;23;20775;-63
2022/12/15 13:09:39;;;;;;;33.33;27.97;;;3.10;99.90;;;;;;6238770;23;20418;-63
2022/12/15 13:12:35;;;;;;;34.63;29.57;;;3.10;99.90;;;;;;6246143;22;20755;-63
2022/12/15 13:15:10;;;;;;;34.63;29.13;;;3.00;99.90;;;;;;6247010;23;20391;-63
2022/12/15 13:17:41;;;;;;;35.73;29.13;;;3.00;99.90;;;;;;6246996;23;20401;-63
2022/12/15 13:20:23;;;;;;;38.53;29.97;;;3.00;99.90;;;;;;6247679;23;20811;-63
2022/12/15 13:22:50;;;;;;;36.77;29.83;;;2.90;99.90;;;;;;6246977;23;20423;-63
2022/12/15 13:25:40;;;;;;;36.67;29.43;;;2.80;99.90;;;;;;6247502;23;20410;-63
2022/12/15 13:28:25;;;;;;;38.70;30.20;;;2.80;99.90;;;;;;6246787;23;20459;-62
2022/12/15 13:31:26;;;;;;;33.47;27.70;;;2.80;99.90;;;;;;6246576;22;20430;-62
2022/12/15 13:34:01;;;;;;;37.73;29.70;;;2.90;99.90;;;;;;6242269;23;20793;-63
2022/12/15 13:37:01;;;;;;;34.90;29.07;;;3.00;99.90;;;;;;6246802;23;20400;-63
2022/12/15 13:39:55;;;;;;;33.80;28.63;;;3.00;99.90;;;;;;6124278;23;20402;-62
2022/12/15 13:42:35;;;;;;;32.47;27.13;;;2.80;99.90;;;;;;6115821;23;20446;-63
2022/12/15 13:45:28;;;;;;;34.53;28.13;;;2.80;99.90;;;;;;6213287;23;20447;-63
2022/12/15 13:47:56;;;;;;;36.17;28.60;;;2.80;99.90;;;;;;6248440;23;20461;-63
2022/12/15 13:50:31;;;;;;;36.93;30.00;;;2.80;99.90;;;;;;6249154;22;20773;-63
2022/12/15 13:53:02;;;;;;;40.47;31.90;;;2.70;99.90;;;;;;6249974;23;20402;-63
2022/12/15 13:55:36;;;;;;;36.40;29.00;;;2.70;99.90;;;;;;6250109;23;20429;-62
2022/12/15 13:58:12;;;;;;;39.70;31.13;;;2.60;99.90;;;;;;6248781;23;20423;-66
2022/12/15 14:00:50;;;;;;;39.90;30.73;;;2.60;99.90;;;;;;6248618;22;20481;-65
2022/12/15 14:03:17;;;;;;;37.77;28.87;;;2.60;99.90;;;;;;6248774;23;20423;-66
2022/12/15 14:05:49;;;;;;;39.17;31.17;;;2.50;99.90;;;;;;6248779;23;20414;-66
2022/12/15 14:08:17;;;;;;;36.87;29.70;;;2.50;99.90;;;;;;6248998;23;20419;-66
2022/12/15 14:10:47;;;;;;;40.50;32.70;;;2.40;99.90;;;;;;6248355;22;20481;-65
2022/12/15 14:13:20;;;;;;;37.10;28.73;;;2.40;99.90;;;;;;6248681;23;20548;-66
2022/12/15 14:15:52;;;;;;;37.90;30.37;;;2.40;99.90;;;;;;6248398;23;20470;-66
2022/12/15 14:18:28;;;;;;;39.73;29.43;;;2.40;99.90;;;;;;6248598;23;20395;-66
2022/12/15 14:20:55;;;;;;;37.83;28.37;;;2.40;99.90;;;;;;6247939;22;20745;-66
2022/12/15 14:23:23;;;;;;;40.27;30.43;;;2.30;99.90;;;;;;6248092;23;20430;-66
2022/12/15 14:25:55;;;;;;;34.73;26.70;;;2.30;99.90;;;;;;6248590;23;20430;-66
2022/12/15 14:28:28;;;;;;;35.23;29.60;;;2.30;99.90;;;;;;6248459;23;20418;-65
2022/12/15 14:31:00;;;;;;;36.20;29.37;;;2.30;99.90;;;;;;6248538;22;20755;-65
2022/12/15 14:33:27;;;;;;;37.50;30.20;;;2.20;99.90;;;;;;6248578;23;20473;-66
2022/12/15 14:35:56;;;;;;;36.80;29.80;;;2.20;99.90;;;;;;6248211;23;20899;-66
2022/12/15 14:38:27;;;;;;;35.47;27.80;;;2.20;99.90;;;;;;6248461;23;20410;-66
2022/12/15 14:40:57;;;;;;;39.60;30.00;;;2.20;99.90;;;;;;6249434;22;20431;-65
2022/12/15 14:43:27;;;;;;;36.57;28.07;;;2.10;99.90;;;;;;6248842;23;20431;-66
2022/12/15 14:45:56;;;;;;;36.93;28.90;;;2.10;99.90;;;;;;6249064;23;20419;-66
2022/12/15 14:48:29;;;;;;;35.23;27.30;;;2.00;99.90;;;;;;6248597;23;20419;-66
2022/12/15 14:50:59;;;;;;;37.47;27.97;;;2.00;99.90;;;;;;6248855;22;20509;-65
2022/12/15 14:53:31;;;;;;;36.00;27.17;;;1.90;99.90;;;;;;6248446;23;20764;-66
2022/12/15 14:56:11;;;;;;;32.33;26.70;;;1.90;99.90;;;;;;6247932;23;20485;-66
2022/12/15 14:58:40;;;;;;;38.83;29.40;;;2.00;99.90;;;;;;6248840;23;20456;-70
2022/12/15 15:01:23;;;;;;;32.63;26.70;;;2.10;99.90;;;;;;6248125;22;20466;-68
2022/12/15 15:03:58;;;;;;;27.87;24.83;;;2.60;99.90;;;;;;6247858;23;20427;-66
2022/12/15 15:06:30;;;;;;;26.80;23.43;;;3.00;99.90;;;;;;6248083;23;20395;-67
2022/12/15 15:09:11;;;;;;;28.90;22.33;;;3.20;99.90;;;;;;6248182;23;20395;-68
2022/12/15 15:11:40;;;;;;;24.63;20.50;;;3.50;99.90;;;;;;6247974;22;20430;-68
2022/12/15 15:14:13;;;;;;;27.70;22.40;;;3.80;99.90;;;;;;6248079;23;20407;-68
2022/12/15 15:16:40;;;;;;;25.33;20.43;;;3.80;99.90;;;;;;6247763;23;20860;-69
2022/12/15 15:19:16;;;;;;;27.30;22.53;;;3.90;99.90;;;;;;6247714;23;20410;-65
2022/12/15 15:21:45;;;;;;;25.43;20.83;;;3.90;99.90;;;;;;6247899;22;20842;-65
2022/12/15 15:24:23;;;;;;;25.60;20.70;;;4.00;99.90;;;;;;6248206;23;20438;-65
2022/12/15 15:26:51;;;;;;;25.97;21.13;;;4.10;99.90;;;;;;6247610;23;20394;-66
2022/12/15 15:29:36;;;;;;;27.67;20.50;;;4.00;99.90;;;;;;6247733;23;20433;-66
2022/12/15 15:32:06;;;;;;;23.70;19.97;;;4.00;99.90;;;;;;6247649;22;20430;-66
2022/12/15 15:34:34;;;;;;;23.67;20.60;;;4.00;99.90;;;;;;6247354;23;20852;-65
2022/12/15 15:37:04;;;;;;;25.77;20.80;;;4.10;99.90;;;;;;6248889;23;20489;-65
2022/12/15 15:39:32;;;;;;;22.17;19.80;;;4.10;99.90;;;;;;6248163;23;20407;-65
2022/12/15 15:42:04;;;;;;;24.00;19.97;;;4.10;99.90;;;;;;6247351;22;20430;-65
2022/12/15 15:44:32;;;;;;;24.57;20.60;;;4.20;99.90;;;;;;6248618;23;20980;-65
2022/12/15 15:46:59;;;;;;;24.70;19.37;;;4.20;99.90;;;;;;6247398;23;20411;-64
2022/12/15 15:49:26;;;;;;;22.67;19.80;;;4.20;99.90;;;;;;6247486;23;20771;-64
2022/12/15 15:51:55;;;;;;;27.60;21.60;;;4.30;99.90;;;;;;6247615;22;20454;-64
2022/12/15 15:54:24;;;;;;;22.10;18.57;;;4.30;99.90;;;;;;6247399;23;20437;-63
2022/12/15 15:56:51;;;;;;;22.07;18.90;;;4.30;99.90;;;;;;6247924;23;20790;-63
2022/12/15 15:59:19;;;;;;;24.20;19.80;;;4.30;99.90;;;;;;6247968;23;20410;-66
2022/12/15 16:01:51;;;;;;;24.70;20.10;;;4.30;99.90;;;;;;6247155;22;20438;-65
2022/12/15 16:04:18;;;;;;;26.77;22.17;;;4.20;99.90;;;;;;6247308;23;20427;-66
2022/12/15 16:06:44;;;;;;;25.03;21.23;;;4.00;99.90;;;;;;6247429;23;20415;-66
2022/12/15 16:09:15;;;;;;;24.77;20.20;;;3.80;99.90;;;;;;6247276;23;20721;-63
2022/12/15 16:11:42;;;;;;;25.63;22.27;;;3.50;99.90;;;;;;6247377;22;20514;-63
2022/12/15 16:14:12;;;;;;;26.93;23.57;;;3.30;99.90;;;;;;6247702;23;20541;-70
2022/12/15 16:16:39;;;;;;;25.80;23.00;;;3.10;99.90;;;;;;6248561;23;20778;-66
2022/12/15 16:19:06;;;;;;;26.83;22.60;;;2.90;99.90;;;;;;6247952;23;20434;-68
2022/12/15 16:21:34;;;;;;;27.03;23.23;;;2.80;99.90;;;;;;6248382;22;20435;-66
2022/12/15 16:24:07;;;;;;;27.00;22.83;;;2.70;99.90;;;;;;6247900;23;20431;-65
2022/12/15 16:26:36;;;;;;;29.50;22.97;;;2.70;99.90;;;;;;6247893;23;20453;-66
2022/12/15 16:29:04;;;;;;;30.87;23.50;;;2.60;99.90;;;;;;6247798;23;20744;-65
2022/12/15 16:31:33;;;;;;;28.67;23.00;;;2.60;99.90;;;;;;6247848;22;20513;-66
2022/12/15 16:34:00;;;;;;;29.47;25.10;;;2.50;99.90;;;;;;6247038;23;20406;-65
2022/12/15 16:36:26;;;;;;;26.90;23.13;;;2.40;99.90;;;;;;6248153;23;20427;-64
2022/12/15 16:38:53;;;;;;;28.80;23.80;;;2.30;99.90;;;;;;6248394;23;20902;-69
2022/12/15 16:41:22;;;;;;;29.23;24.37;;;2.30;99.90;;;;;;6247565;22;20426;-65
2022/12/15 16:43:50;;;;;;;27.30;23.83;;;2.20;99.90;;;;;;6248048;23;20441;-66
2022/12/15 16:46:16;;;;;;;30.67;25.60;;;2.20;99.90;;;;;;6248232;23;20411;-65
2022/12/15 16:48:43;;;;;;;31.17;24.87;;;2.10;99.90;;;;;;6248224;23;20411;-67
2022/12/15 16:51:23;;;;;;;30.90;26.10;;;2.10;99.90;;;;;;6248240;22;20962;-64
2022/12/15 16:53:50;;;;;;;32.57;25.17;;;2.10;99.90;;;;;;6246979;23;20391;-66
2022/12/15 16:56:17;;;;;;;27.83;23.90;;;2.10;99.90;;;;;;6246918;23;20411;-65
2022/12/15 16:58:43;;;;;;;32.70;25.77;;;2.00;99.90;;;;;;6246776;23;20410;-64
2022/12/15 17:01:11;;;;;;;30.90;26.23;;;1.90;99.90;;;;;;6246214;22;20469;-63
2022/12/15 17:03:38;;;;;;;33.57;26.80;;;1.90;99.90;;;;;;6246152;23;20969;-63
2022/12/15 17:06:07;;;;;;;32.87;26.93;;;1.80;99.90;;;;;;6246676;23;20406;-63
2022/12/15 17:08:38;;;;;;;32.07;25.60;;;1.80;99.90;;;;;;6246641;23;20414;-63
2022/12/15 17:11:05;;;;;;;29.60;24.87;;;1.80;99.90;;;;;;6246758;22;20461;-63
2022/12/15 17:13:35;;;;;;;32.20;26.33;;;1.80;99.90;;;;;;6246758;23;20403;-63
2022/12/15 17:16:03;;;;;;;32.80;26.90;;;1.80;99.90;;;;;;6246460;23;20696;-63
2022/12/15 17:18:31;;;;;;;33.23;29.00;;;1.80;99.90;;;;;;6246249;23;20476;-63
2022/12/15 17:21:02;;;;;;;37.00;29.70;;;1.80;99.90;;;;;;6246400;22;20485;-63
2022/12/15 17:23:29;;;;;;;38.33;28.63;;;1.80;99.90;;;;;;6247147;23;20510;-64
2022/12/15 17:25:56;;;;;;;31.97;26.17;;;1.70;99.90;;;;;;6246990;23;20410;-65
2022/12/15 17:28:26;;;;;;;32.50;25.80;;;1.60;99.90;;;;;;6246714;23;20791;-65
2022/12/15 17:30:54;;;;;;;30.50;25.67;;;1.70;99.90;;;;;;6246662;22;20480;-63
2022/12/15 17:33:23;;;;;;;31.20;25.40;;;1.60;99.90;;;;;;6246813;23;20414;-64
2022/12/15 17:35:53;;;;;;;33.00;27.00;;;1.60;99.90;;;;;;6246874;23;20415;-63
2022/12/15 17:38:22;;;;;;;34.90;26.20;;;1.70;99.90;;;;;;6247800;23;20403;-63
2022/12/15 17:40:50;;;;;;;31.23;26.00;;;1.60;99.90;;;;;;6246748;22;20431;-63
2022/12/15 17:43:19;;;;;;;30.03;26.07;;;1.70;99.90;;;;;;6246571;23;20779;-64
2022/12/15 17:45:46;;;;;;;33.77;26.97;;;1.70;99.90;;;;;;6247105;23;20417;-64
2022/12/15 17:48:13;;;;;;;31.67;25.53;;;1.70;99.90;;;;;;6248366;23;20717;-63
2022/12/15 17:50:40;;;;;;;33.00;25.77;;;1.70;99.90;;;;;;6248880;22;20438;-64
2022/12/15 17:53:13;;;;;;;31.30;25.37;;;1.60;99.90;;;;;;6248812;23;20460;-63
2022/12/15 17:55:39;;;;;;;30.17;24.27;;;1.70;99.90;;;;;;6247777;23;20395;-64
2022/12/15 17:58:14;;;;;;;31.07;26.00;;;1.70;99.90;;;;;;6247324;23;20415;-64
2022/12/15 18:00:40;;;;;;;29.23;25.37;;;1.70;99.90;;;;;;6219914;22;20434;-64
2022/12/15 18:03:09;;;;;;;33.63;26.03;;;1.70;99.90;;;;;;6246945;23;20848;-63
2022/12/15 18:05:35;;;;;;;31.27;26.60;;;1.70;99.90;;;;;;6246922;23;20434;-64
2022/12/15 18:08:10;;;;;;;35.80;29.47;;;1.70;99.90;;;;;;6247192;23;20783;-64
2022/12/15 18:10:40;;;;;;;35.13;29.23;;;1.70;99.90;;;;;;6247211;22;20398;-65
2022/12/15 18:13:15;;;;;;;36.17;30.07;;;1.70;99.90;;;;;;6247472;23;20427;-64
2022/12/15 18:15:42;;;;;;;37.37;30.20;;;1.80;99.90;;;;;;6246594;23;20720;-65
2022/12/15 18:18:09;;;;;;;40.43;30.87;;;1.70;99.90;;;;;;6246940;23;20952;-64
2022/12/15 18:20:35;;;;;;;38.90;31.47;;;1.70;99.90;;;;;;6247052;22;20473;-65
2022/12/15 18:23:02;;;;;;;42.03;32.73;;;1.60;99.90;;;;;;6247090;23;20410;-64
2022/12/15 18:25:30;;;;;;;43.40;33.50;;;1.50;99.90;;;;;;6248466;23;20422;-65